Time;durP1;ratioP1;P1;durP2;ratioP2;P2;SDS_P1;SDS_P2;PMS_P1;PMS_P2;Temp;Humidity;BMP_temperature;BMP_pressure;BME280_temperature;BME280_humidity;BME280_pressure;Samples;Min_cycle;Max_cycle;Signal;HPM_P1;HPM_P2
2023/05/10 00:00:00;;;;;;;11.75;9.40;;;15.60;91.70;;;;;;5072348;28;20060;-69
2023/05/10 00:02:26;;;;;;;12.27;9.90;;;15.50;91.70;;;;;;5072561;28;20035;-70
2023/05/10 00:04:52;;;;;;;14.65;11.02;;;15.60;91.60;;;;;;5072782;28;20028;-70
2023/05/10 00:07:17;;;;;;;12.48;9.95;;;15.60;91.60;;;;;;5073775;28;20065;-69
2023/05/10 00:09:43;;;;;;;11.13;8.73;;;15.60;91.70;;;;;;5072518;28;20028;-68
2023/05/10 00:12:09;;;;;;;13.10;10.00;;;15.50;91.70;;;;;;5072051;28;20043;-69
2023/05/10 00:14:35;;;;;;;15.25;11.60;;;15.50;91.70;;;;;;5072449;28;20100;-69
2023/05/10 00:17:00;;;;;;;15.90;11.77;;;15.60;91.70;;;;;;5072323;28;20483;-70
2023/05/10 00:19:26;;;;;;;14.25;10.68;;;15.60;91.80;;;;;;5072031;28;20586;-70
2023/05/10 00:21:51;;;;;;;14.50;10.52;;;15.50;91.70;;;;;;5071250;28;20425;-70
2023/05/10 00:24:17;;;;;;;16.60;12.13;;;15.60;91.80;;;;;;5071020;28;20526;-68
2023/05/10 00:26:42;;;;;;;17.55;12.82;;;15.60;91.70;;;;;;5071789;28;20544;-70
2023/05/10 00:29:08;;;;;;;15.50;11.02;;;15.50;91.70;;;;;;5091733;28;20039;-70
2023/05/10 00:31:33;;;;;;;16.95;12.35;;;15.50;91.70;;;;;;5076904;28;20107;-71
2023/05/10 00:33:59;;;;;;;18.77;13.70;;;15.60;91.80;;;;;;5077349;28;20024;-70
2023/05/10 00:36:25;;;;;;;18.95;13.50;;;15.60;91.80;;;;;;5071691;28;20025;-71
2023/05/10 00:38:50;;;;;;;19.40;13.85;;;15.60;91.80;;;;;;5072044;28;20032;-72
2023/05/10 00:41:16;;;;;;;21.70;14.48;;;15.60;91.70;;;;;;5070668;28;20044;-70
2023/05/10 00:43:41;;;;;;;20.17;14.13;;;15.60;91.70;;;;;;5072060;28;20111;-68
2023/05/10 00:46:07;;;;;;;20.40;14.50;;;15.60;91.80;;;;;;5072159;28;20024;-70
2023/05/10 00:48:33;;;;;;;21.65;14.85;;;15.60;91.80;;;;;;5071276;28;20060;-70
2023/05/10 00:51:00;;;;;;;18.80;13.80;;;15.60;91.80;;;;;;5071681;28;20034;-70
2023/05/10 00:53:26;;;;;;;18.35;13.50;;;15.60;91.80;;;;;;5071185;28;20020;-70
2023/05/10 00:55:51;;;;;;;21.08;15.20;;;15.60;91.80;;;;;;5071610;28;20237;-70
2023/05/10 00:58:17;;;;;;;23.23;15.00;;;15.60;91.80;;;;;;5071002;28;20032;-70
2023/05/10 01:00:45;;;;;;;22.05;15.65;;;15.60;91.80;;;;;;5071404;28;20024;-69
2023/05/10 01:03:11;;;;;;;22.70;15.00;;;15.60;91.80;;;;;;5071476;28;20024;-69
2023/05/10 01:05:37;;;;;;;23.45;16.50;;;15.60;91.80;;;;;;5070977;28;20024;-69
2023/05/10 01:08:03;;;;;;;22.42;15.35;;;15.70;91.80;;;;;;5071846;28;20021;-69
2023/05/10 01:10:29;;;;;;;22.38;15.43;;;15.70;91.80;;;;;;5069558;28;20112;-69
2023/05/10 01:12:55;;;;;;;22.38;15.85;;;15.70;91.80;;;;;;5071093;28;20027;-70
2023/05/10 01:15:21;;;;;;;22.63;14.88;;;15.60;91.70;;;;;;5070793;28;20028;-69
2023/05/10 01:17:48;;;;;;;23.27;16.05;;;15.60;91.70;;;;;;5074590;28;20061;-70
2023/05/10 01:20:14;;;;;;;26.40;17.33;;;15.60;91.80;;;;;;5073065;28;20499;-70
2023/05/10 01:22:58;;;;;;;24.13;16.92;;;15.60;91.70;;;;;;5083749;28;20064;-70
2023/05/10 01:25:38;;;;;;;24.10;17.08;;;15.60;91.70;;;;;;5071156;28;20036;-69
2023/05/10 01:28:23;;;;;;;24.48;17.20;;;15.60;91.80;;;;;;5070169;28;20025;-70
2023/05/10 01:31:08;;;;;;;23.90;16.73;;;15.60;91.80;;;;;;5070755;28;20028;-70
2023/05/10 01:33:49;;;;;;;26.90;17.33;;;15.60;91.80;;;;;;5070039;28;20021;-69
2023/05/10 01:36:25;;;;;;;29.75;19.65;;;15.60;91.80;;;;;;5069492;28;20028;-70
2023/05/10 01:39:17;;;;;;;29.48;18.52;;;15.60;91.80;;;;;;5070410;28;20154;-70
2023/05/10 01:41:49;;;;;;;32.53;20.50;;;15.60;91.90;;;;;;5072078;28;20036;-68
2023/05/10 01:44:24;;;;;;;25.98;17.92;;;15.60;91.90;;;;;;5069134;28;20050;-70
2023/05/10 01:46:57;;;;;;;27.15;18.42;;;15.60;91.90;;;;;;5070718;28;20408;-70
2023/05/10 01:49:30;;;;;;;28.00;19.02;;;15.60;91.90;;;;;;5070294;28;20036;-70
2023/05/10 01:52:06;;;;;;;27.95;18.65;;;15.60;91.90;;;;;;5087684;28;20052;-70
2023/05/10 01:54:33;;;;;;;29.45;20.33;;;15.60;91.90;;;;;;5069281;28;20016;-71
2023/05/10 01:57:03;;;;;;;29.73;19.33;;;15.50;91.90;;;;;;5087040;28;20048;-72
2023/05/10 01:59:38;;;;;;;28.23;19.48;;;15.50;92.00;;;;;;5070598;28;20090;-71
2023/05/10 02:02:05;;;;;;;44.17;29.75;;;15.50;92.00;;;;;;5070911;28;20044;-71
2023/05/10 02:04:33;;;;;;;33.42;22.70;;;15.50;92.00;;;;;;5081463;28;20109;-72
2023/05/10 02:06:58;;;;;;;30.35;21.50;;;15.50;92.10;;;;;;5070326;28;20017;-70
2023/05/10 02:09:26;;;;;;;26.40;18.63;;;15.50;92.20;;;;;;5069686;28;20499;-71
2023/05/10 02:11:54;;;;;;;25.83;18.23;;;15.50;92.20;;;;;;5070214;28;20051;-71
2023/05/10 02:14:21;;;;;;;28.00;19.05;;;15.50;92.20;;;;;;5070042;28;20462;-69
2023/05/10 02:16:50;;;;;;;26.02;18.25;;;15.50;92.20;;;;;;5070384;28;20028;-69
2023/05/10 02:19:17;;;;;;;25.80;17.50;;;15.60;92.20;;;;;;5068842;28;20024;-69
2023/05/10 02:21:44;;;;;;;24.80;16.02;;;15.60;92.20;;;;;;5069064;28;20031;-69
2023/05/10 02:24:11;;;;;;;24.58;16.60;;;15.60;92.20;;;;;;5070101;28;20013;-69
2023/05/10 02:26:39;;;;;;;29.65;21.40;;;15.60;92.20;;;;;;5070030;28;20037;-68
2023/05/10 02:29:06;;;;;;;26.48;18.48;;;15.60;92.20;;;;;;5068463;28;20058;-68
2023/05/10 02:31:33;;;;;;;26.80;17.35;;;15.60;92.20;;;;;;5069508;28;20118;-69
2023/05/10 02:34:00;;;;;;;29.25;18.63;;;15.60;92.50;;;;;;5070103;28;20364;-70
2023/05/10 02:36:27;;;;;;;29.85;19.15;;;15.60;92.20;;;;;;5068187;28;20028;-68
2023/05/10 02:38:53;;;;;;;29.05;18.95;;;15.60;92.20;;;;;;5068665;28;20036;-69
2023/05/10 02:41:22;;;;;;;24.10;17.15;;;15.60;92.50;;;;;;5085694;28;20020;-67
2023/05/10 02:43:50;;;;;;;28.30;18.77;;;15.60;92.30;;;;;;5071373;28;20025;-67
2023/05/10 02:46:16;;;;;;;28.65;18.45;;;15.60;92.30;;;;;;5074172;28;20378;-68
2023/05/10 02:48:41;;;;;;;31.48;19.27;;;15.60;92.30;;;;;;5078272;28;20032;-65
2023/05/10 02:51:09;;;;;;;29.08;19.08;;;15.60;92.20;;;;;;5074206;28;20058;-68
2023/05/10 02:53:38;;;;;;;30.58;19.13;;;15.60;92.20;;;;;;5073717;28;20395;-69
2023/05/10 02:56:10;;;;;;;29.80;18.55;;;15.60;92.30;;;;;;5074304;28;20100;-69
2023/05/10 02:58:36;;;;;;;37.53;23.77;;;15.60;92.30;;;;;;5075422;28;20038;-68
2023/05/10 03:01:02;;;;;;;33.65;21.35;;;15.60;92.30;;;;;;5073924;28;20103;-69
2023/05/10 03:03:27;;;;;;;33.38;21.77;;;15.50;92.30;;;;;;5073854;28;20402;-70
2023/05/10 03:05:56;;;;;;;32.03;20.75;;;15.50;92.30;;;;;;5072414;28;20028;-70
2023/05/10 03:08:23;;;;;;;31.95;20.02;;;15.40;92.30;;;;;;5073704;28;20515;-70
2023/05/10 03:11:09;;;;;;;34.53;22.90;;;15.40;92.30;;;;;;5073431;28;20073;-71
2023/05/10 03:13:43;;;;;;;32.13;19.13;;;15.40;92.30;;;;;;5070354;28;20522;-71
2023/05/10 03:16:15;;;;;;;33.83;22.38;;;15.40;92.70;;;;;;5073741;28;20017;-70
2023/05/10 03:19:11;;;;;;;32.05;20.00;;;15.30;92.40;;;;;;5074730;28;20410;-70
2023/05/10 03:21:41;;;;;;;32.03;19.77;;;15.40;92.40;;;;;;5073311;28;20028;-70
2023/05/10 03:24:11;;;;;;;31.58;20.95;;;15.40;92.40;;;;;;5071173;28;20032;-71
2023/05/10 03:26:38;;;;;;;31.77;20.35;;;15.40;92.50;;;;;;5077404;28;20020;-70
2023/05/10 03:29:06;;;;;;;33.30;21.48;;;15.40;92.70;;;;;;5072485;28;20032;-71
2023/05/10 03:31:32;;;;;;;29.65;19.88;;;15.40;92.40;;;;;;5073456;28;20025;-70
2023/05/10 03:33:57;;;;;;;27.35;18.15;;;15.30;92.40;;;;;;5071303;28;20039;-70
2023/05/10 03:36:23;;;;;;;28.10;18.02;;;15.30;92.40;;;;;;5073066;28;20079;-69
2023/05/10 03:38:49;;;;;;;27.40;17.10;;;15.30;92.40;;;;;;5072883;28;20040;-70
2023/05/10 03:41:14;;;;;;;26.42;16.70;;;15.30;92.30;;;;;;5073030;28;20024;-69
2023/05/10 03:43:41;;;;;;;30.08;18.30;;;15.30;92.30;;;;;;5075173;28;20356;-69
2023/05/10 03:46:06;;;;;;;25.85;16.52;;;15.40;92.30;;;;;;5083525;28;20028;-69
2023/05/10 03:48:33;;;;;;;29.25;19.50;;;15.30;92.20;;;;;;5080193;28;20044;-70
2023/05/10 03:50:58;;;;;;;27.88;19.08;;;15.30;92.20;;;;;;5072902;28;20093;-70
2023/05/10 03:53:25;;;;;;;29.33;19.13;;;15.30;92.20;;;;;;5075333;28;20730;-71
2023/05/10 03:55:50;;;;;;;29.42;18.77;;;15.30;92.20;;;;;;5070899;28;20383;-72
2023/05/10 03:58:16;;;;;;;28.42;19.08;;;15.30;92.20;;;;;;5072180;28;20020;-70
2023/05/10 04:00:44;;;;;;;33.50;22.45;;;15.30;92.10;;;;;;5075737;28;20085;-71
2023/05/10 04:03:10;;;;;;;34.03;22.10;;;15.20;92.00;;;;;;5080703;28;20024;-71
2023/05/10 04:05:36;;;;;;;35.08;23.65;;;15.20;92.10;;;;;;5078639;28;20024;-71
2023/05/10 04:08:03;;;;;;;32.45;20.38;;;15.10;92.10;;;;;;5083446;28;20043;-70
2023/05/10 04:10:28;;;;;;;28.38;18.90;;;15.10;92.20;;;;;;5071864;28;20375;-71
2023/05/10 04:12:54;;;;;;;30.67;20.23;;;15.10;92.20;;;;;;5088332;28;20103;-71
2023/05/10 04:15:19;;;;;;;32.78;20.27;;;15.20;92.20;;;;;;5080464;28;20024;-69
2023/05/10 04:17:45;;;;;;;30.27;19.92;;;15.10;92.20;;;;;;5092824;28;20032;-72
2023/05/10 04:20:11;;;;;;;29.30;19.23;;;15.20;92.20;;;;;;5073477;28;20028;-72
2023/05/10 04:22:37;;;;;;;32.47;19.58;;;15.10;92.10;;;;;;5072501;28;20056;-71
2023/05/10 04:25:04;;;;;;;32.92;21.25;;;15.20;92.10;;;;;;5072220;28;20509;-71
2023/05/10 04:27:30;;;;;;;29.90;19.67;;;15.10;92.10;;;;;;5072071;28;20025;-70
2023/05/10 04:29:55;;;;;;;33.30;21.00;;;15.10;92.20;;;;;;5077006;28;20451;-69
2023/05/10 04:32:21;;;;;;;33.45;22.33;;;15.10;92.20;;;;;;5091984;28;20035;-70
2023/05/10 04:34:46;;;;;;;29.33;19.45;;;15.10;92.10;;;;;;5079790;28;20025;-69
2023/05/10 04:37:12;;;;;;;31.10;20.20;;;15.00;92.10;;;;;;5077858;28;20038;-68
2023/05/10 04:39:38;;;;;;;30.58;20.80;;;15.00;92.20;;;;;;5082192;28;20079;-70
2023/05/10 04:42:05;;;;;;;29.70;19.23;;;15.00;92.20;;;;;;5075449;28;20032;-70
2023/05/10 04:44:33;;;;;;;28.38;18.48;;;15.00;92.20;;;;;;5082866;28;20024;-69
2023/05/10 04:46:59;;;;;;;32.42;20.52;;;15.00;92.20;;;;;;5075465;28;20024;-68
2023/05/10 04:49:25;;;;;;;34.58;19.77;;;15.00;92.20;;;;;;5084148;28;20107;-68
2023/05/10 04:51:50;;;;;;;32.25;20.42;;;15.00;92.30;;;;;;5070584;28;20633;-71
2023/05/10 04:54:16;;;;;;;31.27;19.92;;;15.00;92.30;;;;;;5071444;28;20031;-71
2023/05/10 04:56:42;;;;;;;33.53;20.50;;;15.00;92.30;;;;;;5072841;28;20040;-69
2023/05/10 04:59:07;;;;;;;30.85;19.02;;;15.00;92.30;;;;;;5071436;28;20113;-72
2023/05/10 05:01:33;;;;;;;33.13;20.17;;;14.90;92.30;;;;;;5070596;28;20379;-70
2023/05/10 05:03:59;;;;;;;34.05;19.85;;;15.00;92.30;;;;;;5071394;28;20035;-71
2023/05/10 05:06:25;;;;;;;36.10;21.35;;;15.00;92.30;;;;;;5070170;28;20028;-71
2023/05/10 05:08:51;;;;;;;35.80;21.27;;;15.00;92.30;;;;;;5068946;28;20368;-70
2023/05/10 05:11:17;;;;;;;36.03;22.00;;;15.00;92.40;;;;;;5072213;28;20096;-70
2023/05/10 05:13:43;;;;;;;35.88;20.40;;;15.00;92.30;;;;;;5070277;28;20177;-70
2023/05/10 05:16:08;;;;;;;30.77;18.08;;;14.90;92.30;;;;;;5070602;28;20535;-69
2023/05/10 05:18:34;;;;;;;32.40;18.23;;;14.90;92.30;;;;;;5067371;28;20059;-69
2023/05/10 05:21:00;;;;;;;29.25;18.10;;;15.00;92.40;;;;;;5071283;28;20025;-70
2023/05/10 05:23:26;;;;;;;35.00;19.05;;;15.10;92.30;;;;;;5070426;28;20024;-70
2023/05/10 05:25:52;;;;;;;30.52;18.10;;;15.00;92.30;;;;;;5070068;28;20035;-70
2023/05/10 05:28:19;;;;;;;30.75;18.13;;;15.00;92.30;;;;;;5069800;28;20687;-70
2023/05/10 05:30:45;;;;;;;29.40;17.75;;;15.10;92.20;;;;;;5067147;28;20032;-72
2023/05/10 05:33:11;;;;;;;24.95;15.25;;;15.10;92.20;;;;;;5072980;28;20074;-71
2023/05/10 05:35:36;;;;;;;28.33;17.23;;;15.10;92.20;;;;;;5069690;28;20028;-69
2023/05/10 05:38:02;;;;;;;30.02;18.00;;;15.20;92.20;;;;;;5068862;28;20430;-71
2023/05/10 05:40:27;;;;;;;25.67;16.08;;;15.20;92.20;;;;;;5070267;28;20020;-71
2023/05/10 05:42:53;;;;;;;28.45;18.50;;;15.20;92.10;;;;;;5069187;28;20024;-68
2023/05/10 05:45:19;;;;;;;31.63;19.40;;;15.20;92.00;;;;;;5072673;28;20029;-68
2023/05/10 05:47:44;;;;;;;33.95;21.08;;;15.20;92.10;;;;;;5067706;28;20032;-69
2023/05/10 05:50:10;;;;;;;34.15;19.80;;;15.20;92.20;;;;;;5069259;28;20021;-67
2023/05/10 05:52:36;;;;;;;27.60;17.80;;;15.20;92.30;;;;;;5068158;28;20024;-69
2023/05/10 05:55:01;;;;;;;30.98;18.77;;;15.20;92.30;;;;;;5069373;28;20078;-67
2023/05/10 05:57:27;;;;;;;32.45;18.58;;;15.20;92.30;;;;;;5070846;28;20036;-69
2023/05/10 05:59:52;;;;;;;34.10;20.42;;;15.30;92.30;;;;;;5069753;28;20445;-68
2023/05/10 06:02:18;;;;;;;34.95;20.10;;;15.30;92.20;;;;;;5071374;28;20021;-69
2023/05/10 06:04:43;;;;;;;33.38;18.85;;;15.30;92.20;;;;;;5072139;28;20029;-68
2023/05/10 06:07:09;;;;;;;28.73;16.90;;;15.30;92.20;;;;;;5068406;28;20043;-69
2023/05/10 06:09:35;;;;;;;32.92;18.98;;;15.20;92.10;;;;;;5069707;28;20032;-67
2023/05/10 06:12:01;;;;;;;33.55;20.25;;;15.20;92.20;;;;;;5071140;28;20025;-68
2023/05/10 06:14:27;;;;;;;29.30;17.73;;;15.20;92.20;;;;;;5067138;28;20080;-69
2023/05/10 06:16:52;;;;;;;33.88;19.65;;;15.20;92.30;;;;;;5070526;28;20107;-68
2023/05/10 06:19:18;;;;;;;37.97;21.73;;;15.20;92.30;;;;;;5070120;28;20142;-68
2023/05/10 06:21:43;;;;;;;37.80;20.65;;;15.20;92.40;;;;;;5070256;28;20043;-68
2023/05/10 06:24:09;;;;;;;38.05;20.88;;;15.10;92.40;;;;;;5067909;28;20057;-68
2023/05/10 06:26:35;;;;;;;37.55;20.35;;;15.10;92.50;;;;;;5068382;28;20028;-66
2023/05/10 06:29:02;;;;;;;37.92;21.50;;;15.10;92.50;;;;;;5067910;28;20706;-71
2023/05/10 06:31:27;;;;;;;32.13;18.08;;;15.10;92.50;;;;;;5072642;28;20690;-71
2023/05/10 06:33:53;;;;;;;29.25;17.33;;;15.10;92.60;;;;;;5073104;28;20059;-68
2023/05/10 06:36:19;;;;;;;35.38;19.27;;;15.10;92.60;;;;;;5067936;28;20386;-68
2023/05/10 06:38:44;;;;;;;35.30;19.95;;;15.10;92.50;;;;;;5069993;28;20035;-68
2023/05/10 06:41:10;;;;;;;33.38;19.50;;;15.10;92.50;;;;;;5067420;28;20502;-66
2023/05/10 06:43:36;;;;;;;35.58;19.90;;;15.10;92.50;;;;;;5068687;28;20029;-68
2023/05/10 06:46:02;;;;;;;33.70;18.67;;;15.00;92.60;;;;;;5066855;28;20056;-69
2023/05/10 06:48:28;;;;;;;31.10;18.40;;;15.10;92.60;;;;;;5065957;28;20063;-70
2023/05/10 06:50:53;;;;;;;36.40;19.55;;;15.00;92.60;;;;;;5072146;28;20047;-68
2023/05/10 06:53:19;;;;;;;31.15;18.25;;;15.00;92.60;;;;;;5068922;28;20086;-67
2023/05/10 06:55:44;;;;;;;30.13;17.00;;;15.00;92.70;;;;;;5070354;28;20034;-69
2023/05/10 06:58:10;;;;;;;36.80;22.38;;;15.00;92.60;;;;;;5067863;28;20820;-68
2023/05/10 07:00:40;;;;;;;33.70;19.45;;;15.00;92.60;;;;;;5066364;28;20020;-68
2023/05/10 07:03:05;;;;;;;33.03;19.17;;;15.10;92.70;;;;;;5067844;28;20052;-66
2023/05/10 07:05:31;;;;;;;32.65;18.10;;;15.10;92.70;;;;;;5071909;28;20060;-68
2023/05/10 07:07:57;;;;;;;33.45;18.35;;;15.20;92.60;;;;;;5072126;28;20028;-67
2023/05/10 07:10:22;;;;;;;32.47;18.60;;;15.30;92.50;;;;;;5069726;28;20052;-69
2023/05/10 07:12:48;;;;;;;39.28;22.13;;;15.30;92.40;;;;;;5069636;28;20060;-68
2023/05/10 07:15:14;;;;;;;41.75;24.40;;;15.30;92.40;;;;;;5068370;28;20100;-67
2023/05/10 07:17:39;;;;;;;37.28;21.35;;;15.20;92.70;;;;;;5066908;28;20029;-69
2023/05/10 07:20:06;;;;;;;35.05;20.52;;;15.30;92.50;;;;;;5068533;28;20033;-68
2023/05/10 07:22:31;;;;;;;31.73;17.90;;;15.30;92.40;;;;;;5070426;28;20082;-68
2023/05/10 07:24:57;;;;;;;33.95;21.38;;;15.30;92.40;;;;;;5067955;28;20032;-66
2023/05/10 07:27:22;;;;;;;35.00;21.85;;;15.40;92.40;;;;;;5070795;28;20081;-68
2023/05/10 07:29:48;;;;;;;33.65;19.45;;;15.30;92.40;;;;;;5067794;28;20096;-69
2023/05/10 07:32:14;;;;;;;36.30;21.67;;;15.40;92.40;;;;;;5071910;28;20021;-68
2023/05/10 07:34:39;;;;;;;35.53;21.88;;;15.40;92.40;;;;;;5071639;28;20123;-69
2023/05/10 07:37:06;;;;;;;36.92;21.83;;;15.40;92.40;;;;;;5071118;28;20387;-67
2023/05/10 07:39:31;;;;;;;36.78;21.35;;;15.40;92.40;;;;;;5076849;28;20012;-68
2023/05/10 07:41:57;;;;;;;38.50;21.88;;;15.40;92.40;;;;;;5071490;28;20027;-68
2023/05/10 07:44:22;;;;;;;32.22;19.23;;;15.40;92.40;;;;;;5071861;28;20036;-69
2023/05/10 07:46:48;;;;;;;27.65;17.67;;;15.50;92.40;;;;;;5071404;28;20107;-68
2023/05/10 07:49:14;;;;;;;29.73;18.60;;;15.60;92.30;;;;;;5070987;28;20024;-68
2023/05/10 07:51:42;;;;;;;29.55;17.65;;;15.60;92.20;;;;;;5071448;28;20032;-67
2023/05/10 07:54:07;;;;;;;31.77;19.17;;;15.70;92.10;;;;;;5071780;28;20299;-68
2023/05/10 07:56:33;;;;;;;30.70;18.45;;;15.70;92.00;;;;;;5071349;28;20500;-67
2023/05/10 07:59:00;;;;;;;35.78;20.05;;;15.70;92.00;;;;;;5074325;28;20498;-69
2023/05/10 08:01:25;;;;;;;26.52;15.93;;;15.70;92.00;;;;;;5072341;28;20024;-67
2023/05/10 08:03:52;;;;;;;30.85;18.63;;;15.80;91.90;;;;;;5070703;28;20030;-69
2023/05/10 08:06:19;;;;;;;33.13;19.80;;;15.80;91.80;;;;;;5071195;28;20033;-68
2023/05/10 08:08:49;;;;;;;32.88;19.10;;;15.90;91.70;;;;;;5072730;28;20094;-68
2023/05/10 08:11:17;;;;;;;28.60;18.00;;;15.90;91.70;;;;;;5070900;28;20047;-68
2023/05/10 08:13:47;;;;;;;31.85;18.17;;;16.00;91.60;;;;;;5071232;28;20074;-69
2023/05/10 08:16:12;;;;;;;37.65;21.35;;;16.00;91.60;;;;;;5070636;28;20660;-70
2023/05/10 08:18:39;;;;;;;31.92;18.95;;;16.00;91.60;;;;;;5070719;28;20040;-68
2023/05/10 08:21:05;;;;;;;26.20;15.95;;;16.00;91.50;;;;;;5071502;28;20053;-68
2023/05/10 08:23:30;;;;;;;29.88;17.25;;;16.00;91.50;;;;;;5071070;28;20055;-68
2023/05/10 08:25:56;;;;;;;28.33;16.73;;;16.00;91.40;;;;;;5069223;28;20497;-67
2023/05/10 08:28:21;;;;;;;27.02;16.70;;;16.10;91.40;;;;;;5070238;28;20067;-68
2023/05/10 08:30:47;;;;;;;29.20;16.95;;;16.10;91.30;;;;;;5068415;28;20017;-69
2023/05/10 08:33:12;;;;;;;28.10;17.98;;;16.20;91.30;;;;;;5070449;28;20013;-68
2023/05/10 08:35:38;;;;;;;29.67;19.00;;;16.20;91.20;;;;;;5070223;28;20028;-69
2023/05/10 08:38:04;;;;;;;28.35;17.70;;;16.30;91.00;;;;;;5070611;28;20032;-68
2023/05/10 08:40:29;;;;;;;29.52;17.25;;;16.20;90.80;;;;;;5072228;28;20021;-69
2023/05/10 08:43:05;;;;;;;26.80;16.23;;;16.20;90.80;;;;;;5070081;28;20029;-68
2023/05/10 08:45:35;;;;;;;27.50;15.05;;;16.20;90.90;;;;;;5071492;28;20025;-69
2023/05/10 08:48:01;;;;;;;23.40;14.75;;;16.20;90.90;;;;;;5070236;28;20028;-68
2023/05/10 08:50:29;;;;;;;23.42;13.80;;;16.00;90.60;;;;;;5071055;28;20021;-68
2023/05/10 08:52:59;;;;;;;20.42;13.45;;;16.00;90.70;;;;;;5070250;28;20048;-69
2023/05/10 08:55:25;;;;;;;21.23;13.48;;;15.80;90.70;;;;;;5069822;28;20030;-68
2023/05/10 08:57:51;;;;;;;22.42;13.35;;;15.80;90.80;;;;;;5069725;28;20037;-67
2023/05/10 09:00:18;;;;;;;18.98;12.05;;;15.70;90.80;;;;;;5079277;28;20032;-68
2023/05/10 09:02:45;;;;;;;19.88;12.50;;;15.80;90.90;;;;;;5091332;28;20054;-69
2023/05/10 09:05:12;;;;;;;20.95;12.70;;;15.80;90.80;;;;;;5071119;28;20545;-68
2023/05/10 09:07:37;;;;;;;18.85;12.55;;;15.80;90.80;;;;;;5070552;28;20056;-66
2023/05/10 09:10:04;;;;;;;21.55;13.15;;;15.70;90.70;;;;;;5071251;28;20017;-69
2023/05/10 09:12:30;;;;;;;17.60;11.25;;;15.60;90.80;;;;;;5079320;28;20013;-69
2023/05/10 09:14:57;;;;;;;16.95;12.02;;;15.70;90.90;;;;;;5091708;28;20027;-67
2023/05/10 09:17:24;;;;;;;14.48;10.48;;;15.70;90.80;;;;;;5078156;28;21708;-70
2023/05/10 09:19:50;;;;;;;13.95;9.95;;;15.80;90.80;;;;;;5081371;28;20051;-68
2023/05/10 09:22:17;;;;;;;15.70;10.00;;;15.90;90.60;;;;;;5087132;28;20043;-69
2023/05/10 09:24:45;;;;;;;13.95;9.73;;;16.00;90.30;;;;;;5069822;28;20046;-68
2023/05/10 09:27:10;;;;;;;13.60;9.50;;;16.20;90.10;;;;;;5070063;28;20036;-68
2023/05/10 09:29:42;;;;;;;12.70;8.27;;;16.30;89.80;;;;;;5070077;28;20524;-68
2023/05/10 09:32:08;;;;;;;12.38;8.63;;;16.50;89.20;;;;;;5070192;28;20025;-68
2023/05/10 09:34:35;;;;;;;11.52;7.95;;;16.60;88.70;;;;;;5075225;28;20081;-68
2023/05/10 09:37:02;;;;;;;10.55;6.93;;;16.60;88.60;;;;;;5090827;28;20016;-67
2023/05/10 09:39:38;;;;;;;12.38;7.45;;;16.60;88.40;;;;;;5078780;28;20025;-68
2023/05/10 09:42:06;;;;;;;10.70;7.68;;;16.70;88.10;;;;;;5086237;28;20062;-69
2023/05/10 09:44:32;;;;;;;10.10;7.00;;;16.60;87.50;;;;;;5071675;28;20090;-68
2023/05/10 09:46:58;;;;;;;8.18;5.85;;;16.60;87.30;;;;;;5070149;28;20081;-69
2023/05/10 09:49:24;;;;;;;9.25;6.57;;;16.70;87.20;;;;;;5078740;28;20028;-69
2023/05/10 09:52:06;;;;;;;9.02;6.65;;;16.80;86.80;;;;;;5070318;28;20032;-68
2023/05/10 09:54:33;;;;;;;10.52;7.25;;;16.70;86.40;;;;;;5069765;28;20229;-69
2023/05/10 09:56:59;;;;;;;11.13;7.75;;;16.70;86.00;;;;;;5074149;28;20103;-69
2023/05/10 09:59:27;;;;;;;9.18;6.78;;;16.60;85.90;;;;;;5086887;28;20115;-68
2023/05/10 10:01:55;;;;;;;9.48;6.95;;;16.60;86.00;;;;;;5076265;28;20063;-69
2023/05/10 10:04:21;;;;;;;8.50;6.03;;;16.60;86.00;;;;;;5057795;28;20479;-68
2023/05/10 10:07:02;;;;;;;9.63;6.70;;;16.70;86.00;;;;;;5069811;28;20080;-68
2023/05/10 10:09:28;;;;;;;10.50;7.07;;;16.70;85.80;;;;;;5074438;28;20024;-68
2023/05/10 10:11:54;;;;;;;11.30;7.40;;;16.70;85.50;;;;;;5080151;28;20064;-68
2023/05/10 10:14:21;;;;;;;8.85;6.35;;;16.80;85.20;;;;;;5090178;28;20016;-68
2023/05/10 10:16:47;;;;;;;9.80;6.60;;;16.80;85.10;;;;;;5087224;28;20024;-69
2023/05/10 10:19:13;;;;;;;9.45;6.65;;;16.90;85.10;;;;;;5069463;28;20037;-68
2023/05/10 10:21:38;;;;;;;10.25;7.55;;;17.00;84.90;;;;;;5070215;28;20033;-68
2023/05/10 10:24:05;;;;;;;8.60;6.43;;;16.90;84.50;;;;;;5070071;28;20028;-71
2023/05/10 10:26:33;;;;;;;11.02;6.88;;;16.90;84.50;;;;;;5069886;28;20039;-70
2023/05/10 10:29:14;;;;;;;11.77;7.45;;;16.90;84.60;;;;;;5087614;28;20078;-70
2023/05/10 10:32:17;;;;;;;10.05;7.50;;;16.90;84.20;;;;;;5053856;28;20021;-68
2023/05/10 10:34:43;;;;;;;9.73;6.88;;;17.00;84.10;;;;;;5073539;28;20024;-70
2023/05/10 10:37:09;;;;;;;9.52;7.00;;;17.00;83.90;;;;;;5069355;28;20411;-69
2023/05/10 10:39:36;;;;;;;11.23;8.02;;;17.00;83.70;;;;;;5069875;28;20099;-69
2023/05/10 10:42:03;;;;;;;9.38;7.07;;;17.00;83.60;;;;;;5067074;28;20155;-68
2023/05/10 10:44:34;;;;;;;9.68;6.72;;;17.10;83.60;;;;;;5080900;28;20020;-68
2023/05/10 10:47:14;;;;;;;10.82;7.85;;;17.20;83.40;;;;;;5079698;28;20107;-68
2023/05/10 10:49:39;;;;;;;9.65;6.53;;;17.40;82.90;;;;;;5069708;28;20052;-69
2023/05/10 10:52:30;;;;;;;12.90;8.27;;;17.50;83.20;;;;;;5067802;28;20113;-68
2023/05/10 10:55:28;;;;;;;10.98;7.63;;;17.60;81.70;;;;;;5071116;28;20036;-67
2023/05/10 10:58:00;;;;;;;10.70;7.50;;;17.70;81.10;;;;;;5059250;28;20035;-68
2023/05/10 11:00:26;;;;;;;9.45;6.97;;;17.80;80.50;;;;;;5088458;28;20028;-69
2023/05/10 11:03:07;;;;;;;10.07;7.10;;;17.90;80.30;;;;;;5089404;28;20073;-66
2023/05/10 11:05:37;;;;;;;10.70;7.40;;;17.90;80.40;;;;;;5073570;28;20023;-68
2023/05/10 11:08:40;;;;;;;10.57;7.63;;;18.00;80.20;;;;;;5076018;28;20017;-68
2023/05/10 11:11:07;;;;;;;10.25;7.70;;;18.00;79.90;;;;;;5077329;28;20391;-68
2023/05/10 11:13:44;;;;;;;9.15;7.05;;;18.00;79.70;;;;;;5092912;28;20020;-68
2023/05/10 11:16:40;;;;;;;9.43;7.10;;;18.10;79.80;;;;;;5092380;28;20042;-68
2023/05/10 11:19:11;;;;;;;10.35;7.40;;;18.20;79.90;;;;;;5093104;28;20024;-67
2023/05/10 11:21:48;;;;;;;10.88;7.80;;;18.30;79.70;;;;;;5081217;28;20039;-68
2023/05/10 11:24:15;;;;;;;11.52;8.45;;;18.30;79.30;;;;;;5071981;28;20077;-68
2023/05/10 11:26:41;;;;;;;9.68;7.65;;;18.30;79.00;;;;;;5073034;28;20531;-68
2023/05/10 11:29:07;;;;;;;9.43;7.13;;;18.40;78.70;;;;;;5073344;28;20111;-68
2023/05/10 11:31:32;;;;;;;9.45;6.82;;;18.40;78.40;;;;;;5082859;28;20031;-68
2023/05/10 11:34:01;;;;;;;8.18;6.65;;;18.50;78.20;;;;;;5072605;28;20029;-67
2023/05/10 11:36:29;;;;;;;10.57;7.72;;;18.60;78.30;;;;;;5072550;28;20028;-69
2023/05/10 11:38:56;;;;;;;8.27;6.30;;;18.50;77.90;;;;;;5078253;28;20035;-71
2023/05/10 11:41:23;;;;;;;9.63;6.80;;;18.50;77.40;;;;;;5082229;28;20116;-70
2023/05/10 11:43:53;;;;;;;10.05;7.50;;;18.50;76.90;;;;;;5087142;28;20035;-69
2023/05/10 11:46:21;;;;;;;8.15;6.53;;;18.40;76.90;;;;;;5087524;28;20020;-68
2023/05/10 11:48:50;;;;;;;9.55;6.47;;;18.40;77.20;;;;;;5072439;28;20065;-68
2023/05/10 11:51:23;;;;;;;8.30;6.18;;;18.50;77.30;;;;;;5071950;28;20359;-69
2023/05/10 11:53:50;;;;;;;9.30;6.38;;;18.50;77.20;;;;;;5072647;28;20387;-67
2023/05/10 11:56:15;;;;;;;7.90;5.50;;;18.60;77.00;;;;;;5088484;28;20013;-68
2023/05/10 11:58:41;;;;;;;8.23;6.20;;;18.60;76.80;;;;;;5076377;28;20042;-68
2023/05/10 12:01:08;;;;;;;8.57;5.68;;;18.60;76.60;;;;;;5072238;28;20031;-67
2023/05/10 12:03:35;;;;;;;9.15;6.25;;;18.60;76.50;;;;;;5069458;28;20039;-68
2023/05/10 12:06:01;;;;;;;7.72;5.85;;;18.50;76.20;;;;;;5070080;28;20556;-68
2023/05/10 12:08:29;;;;;;;7.50;5.20;;;18.50;76.30;;;;;;5070979;28;20032;-69
2023/05/10 12:11:10;;;;;;;7.85;5.20;;;18.50;76.40;;;;;;5074580;28;20016;-68
2023/05/10 12:13:40;;;;;;;6.70;5.13;;;18.50;76.40;;;;;;5073320;28;20027;-67
2023/05/10 12:16:21;;;;;;;6.90;5.50;;;18.50;76.40;;;;;;5082331;28;20413;-69
2023/05/10 12:18:52;;;;;;;8.15;6.05;;;18.60;76.20;;;;;;5072404;28;20034;-67
2023/05/10 12:21:19;;;;;;;6.97;5.18;;;18.60;75.80;;;;;;5081315;28;20028;-67
2023/05/10 12:23:46;;;;;;;5.88;4.60;;;18.80;75.90;;;;;;5089498;28;20085;-68
2023/05/10 12:26:13;;;;;;;5.97;4.57;;;19.00;75.60;;;;;;5077062;28;20033;-69
2023/05/10 12:28:41;;;;;;;6.78;5.13;;;19.20;75.30;;;;;;5079251;28;20035;-68
2023/05/10 12:31:08;;;;;;;7.20;5.20;;;19.40;74.70;;;;;;5068276;28;20029;-68
2023/05/10 12:33:38;;;;;;;7.38;4.88;;;19.50;74.20;;;;;;5083686;28;20107;-68